Toyo Maru — JI3710 — position and weather

sailwx.info

Track history (hours):
 
Tides and Currents Weather Stations Pressure Air Temp Water Temp Dewpoint Dewpoint Depression Visibility Wind Speed Wind Dir Waves Ship Positions

Toyo Maru

Last reported at 2014-Jul-28 10:29 UTC. Time now 2014-Jul-28 16:37 UTC.
Position N 34°52' E 139°23'.

Length 125 m; draft 6 m.

Type: Cargo ship. MMSI: 431401953.

Date/timePositionNaut miles runAvg speedWind from/ knotsBaromVisibWave heightAir tempDewpointWater temp
2014-Jul-28 10:29N 34°52' E 139°23'1617.5
2014-Jul-28 09:33N 35°03' E 139°38'1514.9
2014-Jul-28 08:33N 35°16' E 139°45'1313.0
2014-Jul-28 07:33N 35°29' E 139°50'1514.7
2014-Jul-28 06:33N 35°36' E 140°06'0 0.0
2014-Jul-28 05:33N 35°36' E 140°06'1 1.3
2014-Jul-28 04:33N 35°37' E 140°05'0 0.0
2014-Jul-28 03:31N 35°37' E 140°05'0 0.0
2014-Jul-28 02:31N 35°37' E 140°05'0 0.0
2014-Jul-28 01:31N 35°37' E 140°05'0 0.0
2014-Jul-28 00:31N 35°37' E 140°05'0 0.0
2014-Jul-27 23:33N 35°37' E 140°05'1 1.2
2014-Jul-27 22:28N 35°36' E 140°06'0 0.0
2014-Jul-27 21:31N 35°36' E 140°06'0 0.0
2014-Jul-27 20:22N 35°36' E 140°06'0 0.0
2014-Jul-27 19:31N 35°36' E 140°06'0 0.0
2014-Jul-27 18:28N 35°36' E 140°06'0 0.0
2014-Jul-27 17:31N 35°36' E 140°06'0 0.0
2014-Jul-27 16:28N 35°36' E 140°06'0 0.0
2014-Jul-27 15:25N 35°36' E 140°06'0 0.0
2014-Jul-27 14:25N 35°36' E 140°06'0 0.0
2014-Jul-27 13:27N 35°36' E 140°06'0 0.0
2014-Jul-27 12:33N 35°36' E 140°06'0 0.0
2014-Jul-27 11:30N 35°36' E 140°06'0 0.0
2014-Jul-27 10:30N 35°36' E 140°06'7 7.7
2014-Jul-27 09:34N 35°33' E 139°58'1616.2
2014-Jul-27 08:34N 35°21' E 139°45'1413.9
2014-Jul-27 07:33N 35°07' E 139°45'2019.3
2014-Jul-27 06:32N 34°54' E 139°27'23715.8
2014-Jul-26 15:32N 34°07' E 134°45'10614.8
2014-Jul-26 08:22N 34°04' E 132°37'1215.0
2014-Jul-26 07:33N 34°08' E 132°23'1414.1
2014-Jul-26 06:33N 34°21' E 132°30'1 0.7
2014-Jul-26 05:21N 34°21' E 132°31'2 0.9
2014-Jul-26 03:33N 34°21' E 132°29'0 0.0
2014-Jul-26 02:32N 34°21' E 132°29'0 0.0
2014-Jul-26 01:32N 34°21' E 132°29'0 0.0
2014-Jul-26 00:32N 34°21' E 132°29'0 0.0
2014-Jul-25 23:32N 34°21' E 132°29'0 0.0
2014-Jul-25 22:32N 34°21' E 132°29'0 0.0
2014-Jul-25 21:32N 34°21' E 132°29'0 0.0
2014-Jul-25 20:32N 34°21' E 132°29'0 0.0
2014-Jul-25 19:32N 34°21' E 132°29'0 0.0
2014-Jul-25 18:32N 34°21' E 132°29'0 0.0
2014-Jul-25 17:32N 34°21' E 132°29'0 0.0
2014-Jul-25 16:32N 34°21' E 132°29'1 0.8
2014-Jul-25 15:34N 34°21' E 132°28'1615.9
2014-Jul-25 14:33N 34°07' E 132°18'1 0.1
2014-Jul-25 03:32N 34°08' E 132°18'13 6.4
2014-Jul-25 01:32N 34°21' E 132°22'2 2.3
2014-Jul-25 00:33N 34°19' E 132°24'5 4.4
2014-Jul-24 23:31N 34°21' E 132°29'2 0.4
2014-Jul-24 19:17N 34°21' E 132°31'0 0.0
2014-Jul-24 18:29N 34°21' E 132°31'0 0.0
2014-Jul-24 17:29N 34°21' E 132°31'0 0.0
2014-Jul-24 14:31N 34°21' E 132°31'1010.1
2014-Jul-24 13:33N 34°15' E 132°22'1713.5
2014-Jul-24 12:20N 34°04' E 132°37'33313.4
2014-Jul-23 11:32N 34°47' E 139°17'1616.6
2014-Jul-23 10:33N 34°58' E 139°32'1716.9
2014-Jul-23 09:33N 35°11' E 139°45'1413.8
2014-Jul-23 08:34N 35°25' E 139°43'1817.6
2014-Jul-23 07:33N 35°34' E 140°01'4 4.0
2014-Jul-23 06:31N 35°36' E 140°06'0 0.0
2014-Jul-23 05:33N 35°36' E 140°06'1 1.3
2014-Jul-23 04:33N 35°37' E 140°05'0 0.0
2014-Jul-23 03:21N 35°37' E 140°05'0 0.0
2014-Jul-23 02:33N 35°37' E 140°05'0 0.0
2014-Jul-23 01:33N 35°37' E 140°05'0 0.0
2014-Jul-23 00:33N 35°37' E 140°05'0 0.0
2014-Jul-22 23:32N 35°37' E 140°05'1 1.3
2014-Jul-22 22:33N 35°36' E 140°06'0 0.0
2014-Jul-22 21:33N 35°36' E 140°06'0 0.0
2014-Jul-22 20:33N 35°36' E 140°06'1413.9
2014-Jul-22 19:33N 35°29' E 139°52'1313.0
2014-Jul-22 18:33N 35°16' E 139°46'1515.3
2014-Jul-22 17:33N 35°02' E 139°40'24710.2
2014-Jul-21 17:25N 34°04' E 134°48'  
2014-Jul-18 11:33N 34°56' E 139°30'1717.6
2014-Jul-18 10:33N 35°09' E 139°44'  
Track history (hours):
 
Tides and Currents Weather Stations Pressure Air Temp Water Temp Dewpoint Dewpoint Depression Visibility Wind Speed Wind Dir Waves Ship Positions

Toyo Maru

Last reported at 2014-Jul-28 10:29 UTC. Time now 2014-Jul-28 16:37 UTC.
Position N 34°52' E 139°23'.

Length 125 m; draft 6 m.

Type: Cargo ship. MMSI: 431401953.

Date/timePositionNaut miles runAvg speedWind from/ knotsBaromVisibWave heightAir tempDewpointWater temp
2014-Jul-28 10:29N 34°52' E 139°23'1617.5
2014-Jul-28 09:33N 35°03' E 139°38'1514.9
2014-Jul-28 08:33N 35°16' E 139°45'1313.0
2014-Jul-28 07:33N 35°29' E 139°50'1514.7
2014-Jul-28 06:33N 35°36' E 140°06'0 0.0
2014-Jul-28 05:33N 35°36' E 140°06'1 1.3
2014-Jul-28 04:33N 35°37' E 140°05'0 0.0
2014-Jul-28 03:31N 35°37' E 140°05'0 0.0
2014-Jul-28 02:31N 35°37' E 140°05'0 0.0
2014-Jul-28 01:31N 35°37' E 140°05'0 0.0
2014-Jul-28 00:31N 35°37' E 140°05'0 0.0
2014-Jul-27 23:33N 35°37' E 140°05'1 1.2
2014-Jul-27 22:28N 35°36' E 140°06'0 0.0
2014-Jul-27 21:31N 35°36' E 140°06'0 0.0
2014-Jul-27 20:22N 35°36' E 140°06'0 0.0
2014-Jul-27 19:31N 35°36' E 140°06'0 0.0
2014-Jul-27 18:28N 35°36' E 140°06'0 0.0
2014-Jul-27 17:31N 35°36' E 140°06'0 0.0
2014-Jul-27 16:28N 35°36' E 140°06'0 0.0
2014-Jul-27 15:25N 35°36' E 140°06'0 0.0
2014-Jul-27 14:25N 35°36' E 140°06'0 0.0
2014-Jul-27 13:27N 35°36' E 140°06'0 0.0
2014-Jul-27 12:33N 35°36' E 140°06'0 0.0
2014-Jul-27 11:30N 35°36' E 140°06'0 0.0
2014-Jul-27 10:30N 35°36' E 140°06'7 7.7
2014-Jul-27 09:34N 35°33' E 139°58'1616.2
2014-Jul-27 08:34N 35°21' E 139°45'1413.9
2014-Jul-27 07:33N 35°07' E 139°45'2019.3
2014-Jul-27 06:32N 34°54' E 139°27'23715.8
2014-Jul-26 15:32N 34°07' E 134°45'10614.8
2014-Jul-26 08:22N 34°04' E 132°37'1215.0
2014-Jul-26 07:33N 34°08' E 132°23'1414.1
2014-Jul-26 06:33N 34°21' E 132°30'1 0.7
2014-Jul-26 05:21N 34°21' E 132°31'2 0.9
2014-Jul-26 03:33N 34°21' E 132°29'0 0.0
2014-Jul-26 02:32N 34°21' E 132°29'0 0.0
2014-Jul-26 01:32N 34°21' E 132°29'0 0.0
2014-Jul-26 00:32N 34°21' E 132°29'0 0.0
2014-Jul-25 23:32N 34°21' E 132°29'0 0.0
2014-Jul-25 22:32N 34°21' E 132°29'0 0.0
2014-Jul-25 21:32N 34°21' E 132°29'0 0.0
2014-Jul-25 20:32N 34°21' E 132°29'0 0.0
2014-Jul-25 19:32N 34°21' E 132°29'0 0.0
2014-Jul-25 18:32N 34°21' E 132°29'0 0.0
2014-Jul-25 17:32N 34°21' E 132°29'0 0.0
2014-Jul-25 16:32N 34°21' E 132°29'1 0.8
2014-Jul-25 15:34N 34°21' E 132°28'1615.9
2014-Jul-25 14:33N 34°07' E 132°18'1 0.1
2014-Jul-25 03:32N 34°08' E 132°18'13 6.4
2014-Jul-25 01:32N 34°21' E 132°22'2 2.3
2014-Jul-25 00:33N 34°19' E 132°24'5 4.4
2014-Jul-24 23:31N 34°21' E 132°29'2 0.4
2014-Jul-24 19:17N 34°21' E 132°31'0 0.0
2014-Jul-24 18:29N 34°21' E 132°31'0 0.0
2014-Jul-24 17:29N 34°21' E 132°31'0 0.0
2014-Jul-24 14:31N 34°21' E 132°31'1010.1
2014-Jul-24 13:33N 34°15' E 132°22'1713.5
2014-Jul-24 12:20N 34°04' E 132°37'33313.4
2014-Jul-23 11:32N 34°47' E 139°17'1616.6
2014-Jul-23 10:33N 34°58' E 139°32'1716.9
2014-Jul-23 09:33N 35°11' E 139°45'1413.8
2014-Jul-23 08:34N 35°25' E 139°43'1817.6
2014-Jul-23 07:33N 35°34' E 140°01'4 4.0
2014-Jul-23 06:31N 35°36' E 140°06'0 0.0
2014-Jul-23 05:33N 35°36' E 140°06'1 1.3
2014-Jul-23 04:33N 35°37' E 140°05'0 0.0
2014-Jul-23 03:21N 35°37' E 140°05'0 0.0
2014-Jul-23 02:33N 35°37' E 140°05'0 0.0
2014-Jul-23 01:33N 35°37' E 140°05'0 0.0
2014-Jul-23 00:33N 35°37' E 140°05'0 0.0
2014-Jul-22 23:32N 35°37' E 140°05'1 1.3
2014-Jul-22 22:33N 35°36' E 140°06'0 0.0
2014-Jul-22 21:33N 35°36' E 140°06'0 0.0
2014-Jul-22 20:33N 35°36' E 140°06'1413.9
2014-Jul-22 19:33N 35°29' E 139°52'1313.0
2014-Jul-22 18:33N 35°16' E 139°46'1515.3
2014-Jul-22 17:33N 35°02' E 139°40'24710.2
2014-Jul-21 17:25N 34°04' E 134°48'  
2014-Jul-18 11:33N 34°56' E 139°30'1717.6
2014-Jul-18 10:33N 35°09' E 139°44'  

Dump ship's entire track history